Flight Track Log - Related Links

Times and Time Zones

All times are in EDT time to prevent confusion due to time zone crossing. See the ASA558 flight status page for this flight to view local times or setup timezone preferences in your user account.

Time Position Orientation Groundspeed Altitude Reporting Facility
EDT Latitude Longitude Course Direction KTS MPH feet Rate Location/Type
Thu 04:09:48 PM 47.4700 -122.3075 359° North 169 194 1,500  Level Seattle Center
Thu 04:10:49 PM 47.5281 -122.3083 359° North 228 262 3,700 2,565 Climbing Seattle Center
Thu 04:11:52 PM 47.6036 -122.2964 North 259 298 6,800 2,129 Climbing Seattle Center
Thu 04:12:53 PM 47.6083 -122.1864 86° East 301 346 8,100 934 Climbing Seattle Center
Thu 04:13:54 PM 47.5650 -122.0772 120° Southeast 307 353 8,700 885 Climbing Seattle Center
Thu 04:14:55 PM 47.4981 -122.0381 158° South 315 362 9,900 1,574 Climbing Seattle Center
Thu 04:15:56 PM 47.4011 -122.0275 176° South 356 410 11,900 2,656 Climbing Seattle Center
Thu 04:16:57 PM 47.2736 -122.0228 179° South 384 442 15,300 2,951 Climbing Seattle Center
Thu 04:17:58 PM 47.1656 -122.0103 176° South 393 452 17,900 2,164 Climbing Seattle Center
Thu 04:18:59 PM 47.0550 -121.9681 165° South 413 475 19,700 1,869 Climbing Seattle Center
Thu 04:20:00 PM 46.9392 -121.9289 167° South 427 491 21,700 1,918 Climbing Seattle Center
Thu 04:21:01 PM 46.8203 -121.8856 166° South 441 507 23,600 1,672 Climbing Seattle Center
Thu 04:22:02 PM 46.6986 -121.8433 167° South 450 518 25,100 1,672 Climbing Seattle Center
Thu 04:23:03 PM 46.5736 -121.7986 166° South 462 532 27,000 1,574 Climbing Seattle Center
Thu 04:24:04 PM 46.4481 -121.7531 166° South 467 537 28,300 1,426 Climbing Seattle Center
Thu 04:25:05 PM 46.2928 -121.7061 168° South 478 550 29,900 1,475 Climbing Seattle Center
Thu 04:26:06 PM 46.1611 -121.6753 171° South 480 552 31,300 1,377 Climbing Seattle Center
Thu 04:27:07 PM 46.0336 -121.6461 171° South 469 540 32,700 836 Climbing Seattle Center
Thu 04:28:08 PM 45.9003 -121.6083 169° South 484 557 33,000 98 Climbing Seattle Center
Thu 04:29:09 PM 45.7700 -121.5722 169° South 481 554 32,900  Descending Seattle Center
Thu 04:30:10 PM 45.6419 -121.5408 170° South 466 536 33,000 49 Climbing Seattle Center
Thu 04:31:11 PM 45.5119 -121.5083 170° South 471 542 33,000  Level Seattle Center
Thu 04:32:12 PM 45.3875 -121.4758 170° South 470 541 33,000  Level Seattle Center
Thu 04:33:13 PM 45.2583 -121.4400 169° South 472 543 33,000  Level Seattle Center
Thu 04:34:14 PM 45.1292 -121.4081 170° South 471 542 33,000  Level Seattle Center
Thu 04:35:16 PM 44.9739 -121.3683 170° South 472 543 33,000  Level Seattle Center
Thu 04:36:17 PM 44.8450 -121.3369 170° South 471 542 33,000  Level Seattle Center
Thu 04:37:18 PM 44.7150 -121.3044 170° South 472 543 33,000  Level Seattle Center
Thu 04:38:19 PM 44.5844 -121.2714 170° South 476 548 33,000  Level Seattle Center
Thu 04:39:20 PM 44.4525 -121.2392 170° South 480 552 33,000  Level Seattle Center
Thu 04:40:21 PM 44.3228 -121.2081 170° South 479 551 33,000  Level Seattle Center
Thu 04:41:22 PM 44.1833 -121.1717 169° South 482 555 33,000  Level Seattle Center
Thu 04:42:24 PM 44.0408 -121.1389 171° South 483 556 33,000  Level Seattle Center
Thu 04:43:25 PM 43.9097 -121.1067 170° South 478 550 33,000  Level Seattle Center
Thu 04:44:26 PM 43.7789 -121.0742 170° South 477 549 33,000  Level Seattle Center
Thu 04:45:27 PM 43.6475 -121.0431 170° South 479 551 33,000  Level Seattle Center
Thu 04:46:28 PM 43.5114 -121.0122 171° South 479 551 33,000  Level Seattle Center
Thu 04:47:29 PM 43.3792 -120.9808 170° South 480 552 33,000  Level Seattle Center
Thu 04:48:30 PM 43.2475 -120.9492 170° South 478 550 33,000  Level Seattle Center
Thu 04:49:32 PM 43.1158 -120.9169 170° South 480 552 33,000  Level Seattle Center
Thu 04:50:33 PM 42.9842 -120.8853 170° South 479 551 33,000  Level Seattle Center
Thu 04:51:34 PM 42.8536 -120.8533 170° South 477 549 33,000  Level Seattle Center
Thu 04:52:35 PM 42.7208 -120.8203 170° South 482 555 33,000  Level Seattle Center
Thu 04:53:36 PM 42.5892 -120.7900 170° South 479 551 33,000  Level Seattle Center
Thu 04:54:37 PM 42.4569 -120.7569 170° South 480 552 33,000  Level Seattle Center
Thu 04:55:38 PM 42.3231 -120.7253 170° South 484 557 33,000  Level Seattle Center
Thu 04:56:39 PM 42.1906 -120.6939 170° South 480 552 33,000  Level Seattle Center
Thu 04:57:41 PM 42.0572 -120.6619 170° South 482 555 33,000  Level Seattle Center
Thu 04:58:42 PM 41.8989 -120.6236 170° South 481 554 33,000  Level Seattle Center
Thu 04:59:43 PM 41.7675 -120.5939 170° South 479 551 33,000  Level Seattle Center
Thu 05:01:00 PM 41.6217 -120.5567 169° South  Level FlightAware Approximate
Thu 05:01:20 PM 41.5564 -120.5433 169° South 476 548 33,000  Level Oakland Center
Thu 05:01:45 PM 41.5044 -120.5314 170° South 478 550 33,000  Level Seattle Center
Thu 05:02:46 PM 41.3739 -120.5003 170° South 476 548 33,000  Level Seattle Center
Thu 05:03:47 PM 41.2439 -120.4706 170° South 474 545 33,000  Level Seattle Center
Thu 05:04:48 PM 41.1131 -120.4394 170° South 475 547 33,000  Level Seattle Center
Thu 05:05:49 PM 40.9811 -120.4103 171° South 478 550 33,000  Level Seattle Center
Thu 05:06:50 PM 40.8525 -120.3694 166° South 477 549 33,000  Level Seattle Center
Thu 05:07:51 PM 40.7236 -120.3275 166° South 476 548 33,000  Level Seattle Center
Thu 05:08:52 PM 40.5928 -120.2889 167° South 480 552 33,000  Level Seattle Center
Thu 05:09:31 PM 40.4994 -120.2608 167° South 480 552 33,000  Level Oakland Center
Thu 05:10:33 PM 40.3697 -120.2206 167° South 479 551 33,000  Level Oakland Center
Thu 05:11:34 PM 40.2411 -120.1811 167° South 477 549 33,000  Level Oakland Center
Thu 05:12:36 PM 40.1106 -120.1425 167° South 479 551 33,000  Level Oakland Center
Thu 05:13:37 PM 39.9542 -120.0942 167° South 482 555 33,000  Level Oakland Center
Thu 05:14:38 PM 39.8239 -120.0572 168° South 481 554 33,000  Level Oakland Center
Thu 05:15:40 PM 39.6983 -120.0161 166° South 471 542 33,000  Level Oakland Center
Thu 05:16:41 PM 39.5700 -119.9794 168° South 471 542 33,000  Level Oakland Center
Thu 05:17:43 PM 39.4419 -119.9406 167° South 474 545 33,000  Level Oakland Center
Thu 05:18:44 PM 39.3128 -119.9022 167° South 477 549 33,000  Level Oakland Center
Thu 05:19:46 PM 39.1842 -119.8650 167° South 478 550 33,000  Level Oakland Center
Thu 05:20:47 PM 39.0564 -119.8281 167° South 473 544 33,000  Level Oakland Center
Thu 05:21:49 PM 38.9003 -119.7819 167° South 479 551 33,000  Level Oakland Center
Thu 05:22:50 PM 38.7706 -119.7428 167° South 480 552 33,000  Level Oakland Center
Thu 05:23:52 PM 38.6411 -119.7056 167° South 478 550 33,000  Level Oakland Center
Thu 05:24:53 PM 38.5122 -119.6672 167° South 477 549 33,000  Level Oakland Center
Thu 05:25:54 PM 38.3686 -119.6269 168° South 474 545 33,000  Level Oakland Center
Thu 05:26:56 PM 38.2386 -119.5900 167° South 476 548 33,000  Level Oakland Center
Thu 05:27:57 PM 38.1100 -119.5517 167° South 473 544 33,000  Level Oakland Center
Thu 05:28:59 PM 37.9842 -119.5147 167° South 466 536 33,000  Level Oakland Center
Thu 05:30:00 PM 37.8503 -119.4797 168° South 480 552 33,000  Level Oakland Center
Thu 05:31:02 PM 37.7186 -119.4453 168° South 482 555 33,000  Level Oakland Center
Thu 05:32:03 PM 37.5947 -119.4108 168° South 472 543 33,000  Level Oakland Center
Thu 05:33:05 PM 37.4661 -119.3756 168° South 472 543 33,000  Level Oakland Center
Thu 05:34:06 PM 37.3119 -119.3333 168° South 471 542 33,000  Level Oakland Center
Thu 05:35:08 PM 37.1839 -119.2958 167° South 469 540 33,000  Level Oakland Center
Thu 05:36:09 PM 37.0578 -119.2600 167° South 466 536 33,000  Level Oakland Center
Thu 05:37:11 PM 36.9328 -119.2253 167° South 461 531 33,000  Level Oakland Center
Thu 05:38:12 PM 36.8067 -119.1903 167° South 462 532 33,000  Level Oakland Center
Thu 05:39:14 PM 36.6828 -119.1567 168° South 458 527 33,000  Level Oakland Center
Thu 05:40:15 PM 36.5597 -119.1228 168° South 454 522 33,000  Level Oakland Center
Thu 05:41:17 PM 36.4356 -119.0878 167° South 456 525 33,000  Level Oakland Center
Thu 05:42:18 PM 36.2881 -119.0475 168° South 454 522 33,000  Level Oakland Center
Thu 05:43:20 PM 36.1681 -119.0181 169° South 440 506 33,000  Level Oakland Center
Thu 05:44:21 PM 36.0475 -118.9783 165° South 443 510 33,000  Level Oakland Center
Thu 05:45:23 PM 35.9278 -118.9356 164° South 444 511 33,000  Level Oakland Center
Thu 05:46:25 PM 35.8075 -118.8931 164° South 448 516 33,000  Level Oakland Center
Thu 05:47:26 PM 35.6886 -118.8519 164° South 444 511 33,000  Level Oakland Center
Thu 05:48:00 PM 35.6153 -118.8258 164° South 443 510 33,000  Level Los Angeles Center
Thu 05:49:02 PM 35.4950 -118.7850 165° South 445 512 33,000  Level Los Angeles Center
Thu 05:50:04 PM 35.3758 -118.7431 164° South 445 512 33,000  Level Los Angeles Center
Thu 05:51:06 PM 35.2572 -118.7014 164° South 443 510 33,000 -242 Level Los Angeles Center
Thu 05:52:08 PM 35.1156 -118.6522 164° South 440 506 32,500 -726 Descending Los Angeles Center
Thu 05:53:10 PM 35.0017 -118.5969 158° South 448 516 31,500 -1,548 Descending Los Angeles Center
Thu 05:54:12 PM 34.9161 -118.4758 131° Southeast 455 524 29,300 -2,274 Descending Los Angeles Center
Thu 05:55:14 PM 34.8364 -118.3589 130° Southeast 453 521 26,800 -2,352 Descending Los Angeles Center
Thu 05:56:17 PM 34.7581 -118.2481 131° Southeast 438 504 24,400 -1,584 Descending Los Angeles Center
Thu 05:57:19 PM 34.6822 -118.1386 130° Southeast 428 493 23,500 -1,016 Descending Los Angeles Center
Thu 05:58:21 PM 34.6125 -118.0267 127° Southeast 418 481 22,300 -1,403 Descending Los Angeles Center
Thu 05:59:23 PM 34.5492 -117.8844 118° Southeast 406 467 20,600 -1,536 Descending Los Angeles Center
Thu 06:00:26 PM 34.4964 -117.7714 120° Southeast 391 450 19,100 -1,104 Descending Los Angeles Center
Thu 06:01:28 PM 34.4447 -117.6589 119° Southeast 386 444 18,300 -677 Descending Los Angeles Center
Thu 06:02:30 PM 34.3936 -117.5481 119° Southeast 380 437 17,700 -629 Descending Los Angeles Center
Thu 06:03:32 PM 34.3361 -117.4197 118° Southeast 378 435 17,000 -339 Descending Los Angeles Center
Thu 06:04:34 PM 34.2847 -117.3097 119° Southeast 373 429 17,000 -435 Level Los Angeles Center
Thu 06:05:36 PM 34.2331 -117.2011 120° Southeast 373 429 16,100 -864 Descending Los Angeles Center
Thu 06:06:39 PM 34.1808 -117.0900 120° Southeast 366 421 15,200 -816 Descending Los Angeles Center
Thu 06:07:41 PM 34.1325 -116.9850 119° Southeast 359 413 14,400 -638 Descending Los Angeles Center
Thu 06:08:13 PM 34.1000 -116.9167 120° Southeast 354 407 14,200 -290 Descending Southern California TRACON
Thu 06:08:43 PM 34.0797 -116.8697 118° Southeast 350 403 14,100 -65 Descending Los Angeles Center
Thu 06:09:45 PM 34.0400 -116.7853 120° Southeast 293 337 14,100 -823 Level Los Angeles Center
Thu 06:10:47 PM 34.0006 -116.7050 121° Southeast 277 319 12,400 -1,597 Descending Los Angeles Center
Thu 06:11:49 PM 33.9608 -116.6200 119° Southeast 288 331 10,800 -1,113 Descending Los Angeles Center
Thu 06:12:51 PM 33.9236 -116.5436 120° Southeast 272 313 10,100 -1,113 Descending Los Angeles Center
Thu 06:13:53 PM 33.8922 -116.4742 119° Southeast 240 276 8,500 -1,751 Descending Los Angeles Center
Thu 06:16:20 PM 33.8167 -116.3500 126° Southeast 183 211 4,000 -1,652 Descending Southern California TRACON
Thu 06:17:20 PM 33.7833 -116.4000 231° Southwest 173 199 2,800 -1,211 Descending Southern California TRACON
Thu 06:18:14 PM 33.7833 -116.4500 270° West 164 189 1,700 -1,105 Descending Southern California TRACON
Thu 06:19:14 PM 33.8167 -116.4833 320° Northwest 153 176 700 -1,000 Descending Southern California TRACON
Thu 06:21:00 PM 33.8167 -116.5000 270° West  Level FlightAware Approximate
Thu 06:28:00 PM 33.8297 -116.5067 270° West  Level Estimated

Login

Don't have an account? Register now (free) for customized features, flight alerts, and more!